sensor_id;sensor_type;location;lat;lon;timestamp;pressure;altitude;pressure_sealevel;temperature;humidity
6449;BME280;3257;52.298;13.690;2022-10-16T00:00:41;76566.78;;;-144.77;99.80
6449;BME280;3257;52.298;13.690;2022-10-16T00:03:09;76564.78;;;-144.77;99.84
6449;BME280;3257;52.298;13.690;2022-10-16T00:05:43;76562.81;;;-144.77;99.65
6449;BME280;3257;52.298;13.690;2022-10-16T00:08:11;76564.78;;;-144.77;99.63
6449;BME280;3257;52.298;13.690;2022-10-16T00:10:39;76556.84;;;-144.77;99.44
6449;BME280;3257;52.298;13.690;2022-10-16T00:13:06;76570.75;;;-144.77;99.39
6449;BME280;3257;52.298;13.690;2022-10-16T00:15:34;76576.72;;;-144.77;99.69
6449;BME280;3257;52.298;13.690;2022-10-16T00:18:04;76576.72;;;-144.77;99.52
6449;BME280;3257;52.298;13.690;2022-10-16T00:20:33;76558.84;;;-144.77;99.07
6449;BME280;3257;52.298;13.690;2022-10-16T00:23:00;76550.88;;;-144.77;99.09
6449;BME280;3257;52.298;13.690;2022-10-16T00:25:27;76548.91;;;-144.77;98.77
6449;BME280;3257;52.298;13.690;2022-10-16T00:27:53;76556.84;;;-144.77;98.76
6449;BME280;3257;52.298;13.690;2022-10-16T00:30:20;76572.75;;;-144.77;98.87
6449;BME280;3257;52.298;13.690;2022-10-16T00:32:46;76558.84;;;-144.77;99.25
6449;BME280;3257;52.298;13.690;2022-10-16T00:35:13;76574.72;;;-144.77;99.15
6449;BME280;3257;52.298;13.690;2022-10-16T00:37:39;76568.78;;;-144.77;99.37
6449;BME280;3257;52.298;13.690;2022-10-16T00:40:06;76562.81;;;-144.77;99.67
6449;BME280;3257;52.298;13.690;2022-10-16T00:42:33;76560.81;;;-144.77;99.49
6449;BME280;3257;52.298;13.690;2022-10-16T00:44:59;76562.81;;;-144.77;99.57
6449;BME280;3257;52.298;13.690;2022-10-16T00:47:36;76550.88;;;-144.77;99.31
6449;BME280;3257;52.298;13.690;2022-10-16T00:50:11;76548.91;;;-144.77;98.97
6449;BME280;3257;52.298;13.690;2022-10-16T00:52:43;76554.84;;;-144.77;98.79
6449;BME280;3257;52.298;13.690;2022-10-16T00:55:11;76550.88;;;-144.77;98.97
6449;BME280;3257;52.298;13.690;2022-10-16T00:57:38;76568.78;;;-144.77;98.61
6449;BME280;3257;52.298;13.690;2022-10-16T01:00:07;76578.72;;;-144.77;98.94
6449;BME280;3257;52.298;13.690;2022-10-16T01:02:35;76582.69;;;-144.77;98.92
6449;BME280;3257;52.298;13.690;2022-10-16T01:05:02;76588.63;;;-144.77;99.08
6449;BME280;3257;52.298;13.690;2022-10-16T01:07:45;76578.72;;;-144.77;98.87
6449;BME280;3257;52.298;13.690;2022-10-16T01:10:42;76588.63;;;-144.77;98.72
6449;BME280;3257;52.298;13.690;2022-10-16T01:13:18;76592.63;;;-144.77;98.83
6449;BME280;3257;52.298;13.690;2022-10-16T01:15:55;76584.66;;;-144.77;98.75
6449;BME280;3257;52.298;13.690;2022-10-16T01:21:12;76592.63;;;-144.77;98.74
6449;BME280;3257;52.298;13.690;2022-10-16T01:37:40;76580.69;;;-144.77;98.54
6449;BME280;3257;52.298;13.690;2022-10-16T01:40:11;76582.69;;;-144.77;98.89
6449;BME280;3257;52.298;13.690;2022-10-16T01:42:42;76576.72;;;-144.77;99.39
6449;BME280;3257;52.298;13.690;2022-10-16T01:45:13;76570.75;;;-144.77;99.29
6449;BME280;3257;52.298;13.690;2022-10-16T01:47:41;76566.78;;;-144.77;99.59
6449;BME280;3257;52.298;13.690;2022-10-16T01:50:10;76558.84;;;-144.77;99.37
6449;BME280;3257;52.298;13.690;2022-10-16T01:52:40;76572.75;;;-144.77;99.43
6449;BME280;3257;52.298;13.690;2022-10-16T01:55:09;76572.75;;;-144.77;99.25
6449;BME280;3257;52.298;13.690;2022-10-16T01:57:38;76554.84;;;-144.77;99.22
6449;BME280;3257;52.298;13.690;2022-10-16T02:00:09;76550.88;;;-144.77;98.67
6449;BME280;3257;52.298;13.690;2022-10-16T02:02:42;76550.88;;;-144.77;98.45
6449;BME280;3257;52.298;13.690;2022-10-16T02:07:43;76586.66;;;-144.77;97.87
6449;BME280;3257;52.298;13.690;2022-10-16T02:10:10;76598.56;;;-144.77;98.21
6449;BME280;3257;52.298;13.690;2022-10-16T02:12:40;76606.53;;;-144.77;98.11
6449;BME280;3257;52.298;13.690;2022-10-16T02:15:08;76622.44;;;-144.77;98.17
6449;BME280;3257;52.298;13.690;2022-10-16T02:17:35;76618.44;;;-144.77;98.78
6449;BME280;3257;52.298;13.690;2022-10-16T02:20:03;76620.44;;;-144.77;98.64
6449;BME280;3257;52.298;13.690;2022-10-16T02:22:36;76618.44;;;-144.77;98.69
6449;BME280;3257;52.298;13.690;2022-10-16T02:25:12;76624.41;;;-144.77;98.57
6449;BME280;3257;52.298;13.690;2022-10-16T02:33:11;76614.47;;;-144.77;98.29
6449;BME280;3257;52.298;13.690;2022-10-16T02:35:41;76574.72;;;-144.77;97.49
6449;BME280;3257;52.298;13.690;2022-10-16T02:38:09;76586.66;;;-144.77;97.12
6449;BME280;3257;52.298;13.690;2022-10-16T02:40:37;76614.47;;;-144.77;97.27
6449;BME280;3257;52.298;13.690;2022-10-16T02:43:05;76630.38;;;-144.77;97.44
6449;BME280;3257;52.298;13.690;2022-10-16T02:45:31;76634.34;;;-144.77;97.76
6449;BME280;3257;52.298;13.690;2022-10-16T02:47:58;76622.44;;;-144.77;97.83
6449;BME280;3257;52.298;13.690;2022-10-16T02:50:24;76626.41;;;-144.77;97.92
6449;BME280;3257;52.298;13.690;2022-10-16T02:52:51;76618.44;;;-144.77;97.39
6449;BME280;3257;52.298;13.690;2022-10-16T02:55:18;76614.47;;;-144.77;98.00
6449;BME280;3257;52.298;13.690;2022-10-16T02:57:44;76624.41;;;-144.77;98.21
6449;BME280;3257;52.298;13.690;2022-10-16T03:00:13;76608.50;;;-144.77;97.93
6449;BME280;3257;52.298;13.690;2022-10-16T03:02:40;76604.53;;;-144.77;98.17
6449;BME280;3257;52.298;13.690;2022-10-16T03:05:07;76602.56;;;-144.77;98.19
6449;BME280;3257;52.298;13.690;2022-10-16T03:07:33;76614.47;;;-144.77;98.27
6449;BME280;3257;52.298;13.690;2022-10-16T03:10:00;76622.44;;;-144.77;98.21
6449;BME280;3257;52.298;13.690;2022-10-16T03:12:27;76626.41;;;-144.77;98.34
6449;BME280;3257;52.298;13.690;2022-10-16T03:14:55;76622.44;;;-144.77;98.53
6449;BME280;3257;52.298;13.690;2022-10-16T03:17:23;76634.34;;;-144.77;97.90
6449;BME280;3257;52.298;13.690;2022-10-16T03:19:50;76644.28;;;-144.77;98.16
6449;BME280;3257;52.298;13.690;2022-10-16T03:22:17;76638.31;;;-144.77;98.23
6449;BME280;3257;52.298;13.690;2022-10-16T03:24:43;76632.34;;;-144.77;98.29
6449;BME280;3257;52.298;13.690;2022-10-16T03:27:10;76618.44;;;-144.77;97.96
6449;BME280;3257;52.298;13.690;2022-10-16T03:29:36;76612.50;;;-144.77;96.06
6449;BME280;3257;52.298;13.690;2022-10-16T03:32:03;76630.38;;;-144.77;96.46
6449;BME280;3257;52.298;13.690;2022-10-16T03:34:29;76660.19;;;-144.77;96.69
6449;BME280;3257;52.298;13.690;2022-10-16T03:36:56;76680.06;;;-144.77;96.86
6449;BME280;3257;52.298;13.690;2022-10-16T03:39:22;76693.97;;;-144.77;97.15
6449;BME280;3257;52.298;13.690;2022-10-16T03:41:49;76690.00;;;-144.77;97.62
6449;BME280;3257;52.298;13.690;2022-10-16T03:44:16;76690.00;;;-144.77;97.82
6449;BME280;3257;52.298;13.690;2022-10-16T03:46:42;76690.00;;;-144.77;97.57
6449;BME280;3257;52.298;13.690;2022-10-16T03:49:08;76697.94;;;-144.77;97.51
6449;BME280;3257;52.298;13.690;2022-10-16T03:51:35;76711.84;;;-144.77;97.47
6449;BME280;3257;52.298;13.690;2022-10-16T03:54:02;76713.84;;;-144.77;97.55
6449;BME280;3257;52.298;13.690;2022-10-16T03:56:28;76711.84;;;-144.77;97.83
6449;BME280;3257;52.298;13.690;2022-10-16T03:58:55;76691.97;;;-144.77;97.72
6449;BME280;3257;52.298;13.690;2022-10-16T04:01:21;76717.81;;;-144.77;97.45
6449;BME280;3257;52.298;13.690;2022-10-16T04:03:48;76717.81;;;-144.77;97.34
6449;BME280;3257;52.298;13.690;2022-10-16T04:06:14;76727.75;;;-144.77;97.43
6449;BME280;3257;52.298;13.690;2022-10-16T04:08:44;76739.66;;;-144.77;97.61
6449;BME280;3257;52.298;13.690;2022-10-16T04:11:11;76735.69;;;-144.77;97.41
6449;BME280;3257;52.298;13.690;2022-10-16T04:13:37;76739.66;;;-144.77;97.67
6449;BME280;3257;52.298;13.690;2022-10-16T04:16:04;76735.69;;;-144.77;97.85
6449;BME280;3257;52.298;13.690;2022-10-16T04:18:30;76745.63;;;-144.77;97.74
6449;BME280;3257;52.298;13.690;2022-10-16T04:21:02;76741.66;;;-144.77;97.90
6449;BME280;3257;52.298;13.690;2022-10-16T04:23:29;76737.69;;;-144.77;97.99
6449;BME280;3257;52.298;13.690;2022-10-16T04:25:55;76731.72;;;-144.77;98.23
6449;BME280;3257;52.298;13.690;2022-10-16T04:28:22;76735.69;;;-144.77;98.05
6449;BME280;3257;52.298;13.690;2022-10-16T04:30:49;76737.69;;;-144.77;98.14
6449;BME280;3257;52.298;13.690;2022-10-16T04:33:15;76731.72;;;-144.77;98.42
6449;BME280;3257;52.298;13.690;2022-10-16T04:35:42;76703.91;;;-144.77;97.74
6449;BME280;3257;52.298;13.690;2022-10-16T04:38:08;76693.97;;;-144.77;97.93
6449;BME280;3257;52.298;13.690;2022-10-16T04:40:35;76693.97;;;-144.77;97.74
6449;BME280;3257;52.298;13.690;2022-10-16T04:43:04;76705.88;;;-144.77;97.88
6449;BME280;3257;52.298;13.690;2022-10-16T04:45:31;76703.91;;;-144.77;97.84
6449;BME280;3257;52.298;13.690;2022-10-16T04:47:58;76697.94;;;-144.77;97.94
6449;BME280;3257;52.298;13.690;2022-10-16T04:50:25;76699.94;;;-144.77;97.78
6449;BME280;3257;52.298;13.690;2022-10-16T04:52:52;76705.88;;;-144.77;97.64
6449;BME280;3257;52.298;13.690;2022-10-16T04:55:18;76709.88;;;-144.77;97.79
6449;BME280;3257;52.298;13.690;2022-10-16T04:57:45;76713.84;;;-144.77;97.74
6449;BME280;3257;52.298;13.690;2022-10-16T05:00:12;76711.84;;;-144.77;97.92
6449;BME280;3257;52.298;13.690;2022-10-16T05:02:39;76717.81;;;-144.77;97.95
6449;BME280;3257;52.298;13.690;2022-10-16T05:05:05;76729.75;;;-144.77;97.87
6449;BME280;3257;52.298;13.690;2022-10-16T05:07:32;76737.69;;;-144.77;97.97
6449;BME280;3257;52.298;13.690;2022-10-16T05:09:58;76741.66;;;-144.77;98.17
6449;BME280;3257;52.298;13.690;2022-10-16T05:12:25;76745.63;;;-144.77;98.09
6449;BME280;3257;52.298;13.690;2022-10-16T05:14:51;76735.69;;;-144.77;98.19
6449;BME280;3257;52.298;13.690;2022-10-16T05:17:18;76725.75;;;-144.77;97.57
6449;BME280;3257;52.298;13.690;2022-10-16T05:19:44;76719.81;;;-144.77;97.44
6449;BME280;3257;52.298;13.690;2022-10-16T05:22:11;76747.63;;;-144.77;97.36
6449;BME280;3257;52.298;13.690;2022-10-16T05:24:37;76765.50;;;-144.77;97.70
6449;BME280;3257;52.298;13.690;2022-10-16T05:27:04;76781.41;;;-144.77;97.95
6449;BME280;3257;52.298;13.690;2022-10-16T05:29:30;76791.34;;;-144.77;98.14
6449;BME280;3257;52.298;13.690;2022-10-16T05:31:57;76789.34;;;-144.77;98.29
6449;BME280;3257;52.298;13.690;2022-10-16T05:34:23;76785.38;;;-144.77;98.75
6449;BME280;3257;52.298;13.690;2022-10-16T05:36:50;76763.53;;;-144.77;98.67
6449;BME280;3257;52.298;13.690;2022-10-16T05:39:17;76771.47;;;-144.77;98.72
6449;BME280;3257;52.298;13.690;2022-10-16T05:41:43;76759.53;;;-144.77;98.69
6449;BME280;3257;52.298;13.690;2022-10-16T05:44:10;76755.56;;;-144.77;98.26
6449;BME280;3257;52.298;13.690;2022-10-16T05:46:37;76743.66;;;-144.77;97.58
6449;BME280;3257;52.298;13.690;2022-10-16T05:49:03;76761.53;;;-144.77;97.30
6449;BME280;3257;52.298;13.690;2022-10-16T05:51:30;76751.59;;;-144.77;97.69
6449;BME280;3257;52.298;13.690;2022-10-16T05:53:56;76769.47;;;-144.77;97.83
6449;BME280;3257;52.298;13.690;2022-10-16T05:56:23;76773.47;;;-144.77;98.01
6449;BME280;3257;52.298;13.690;2022-10-16T05:58:49;76779.41;;;-144.77;98.24
6449;BME280;3257;52.298;13.690;2022-10-16T06:01:18;76789.34;;;-144.77;98.34
6449;BME280;3257;52.298;13.690;2022-10-16T06:03:45;76795.31;;;-144.77;98.64
6449;BME280;3257;52.298;13.690;2022-10-16T06:06:16;76801.28;;;-144.77;98.71
6449;BME280;3257;52.298;13.690;2022-10-16T06:08:44;76775.44;;;-144.77;98.24
6449;BME280;3257;52.298;13.690;2022-10-16T06:11:17;76763.53;;;-144.77;98.17
6449;BME280;3257;52.298;13.690;2022-10-16T06:13:44;76739.66;;;-144.77;98.38
6449;BME280;3257;52.298;13.690;2022-10-16T06:16:12;76737.69;;;-144.77;98.27
6449;BME280;3257;52.298;13.690;2022-10-16T06:18:39;76737.69;;;-144.77;98.68
6449;BME280;3257;52.298;13.690;2022-10-16T06:21:16;76725.75;;;-144.77;98.44
6449;BME280;3257;52.298;13.690;2022-10-16T06:23:44;76725.75;;;-144.77;97.89
6449;BME280;3257;52.298;13.690;2022-10-16T06:26:14;76723.78;;;-144.77;98.49
6449;BME280;3257;52.298;13.690;2022-10-16T06:28:41;76717.81;;;-144.77;98.79
6449;BME280;3257;52.298;13.690;2022-10-16T06:31:09;76695.94;;;-144.77;98.67
6449;BME280;3257;52.298;13.690;2022-10-16T06:33:36;76676.06;;;-144.77;98.54
6449;BME280;3257;52.298;13.690;2022-10-16T06:36:05;76664.16;;;-144.77;97.49
6449;BME280;3257;52.298;13.690;2022-10-16T06:38:33;76658.19;;;-144.77;97.26
6449;BME280;3257;52.298;13.690;2022-10-16T06:40:59;76658.19;;;-144.77;96.64
6449;BME280;3257;52.298;13.690;2022-10-16T06:43:28;76668.13;;;-144.77;97.13
6449;BME280;3257;52.298;13.690;2022-10-16T06:45:59;76654.22;;;-144.77;97.14
6449;BME280;3257;52.298;13.690;2022-10-16T06:48:26;76648.25;;;-144.77;96.64
6449;BME280;3257;52.298;13.690;2022-10-16T06:50:58;76652.22;;;-144.77;96.46
6449;BME280;3257;52.298;13.690;2022-10-16T06:53:27;76652.22;;;-144.77;96.56
6449;BME280;3257;52.298;13.690;2022-10-16T06:55:54;76636.34;;;-144.77;95.77
6449;BME280;3257;52.298;13.690;2022-10-16T06:58:21;76640.31;;;-144.77;96.12
6449;BME280;3257;52.298;13.690;2022-10-16T07:00:48;76658.19;;;-144.77;95.77
6449;BME280;3257;52.298;13.690;2022-10-16T07:03:15;76660.19;;;-144.77;96.13
6449;BME280;3257;52.298;13.690;2022-10-16T07:05:42;76652.22;;;-144.77;95.19
6449;BME280;3257;52.298;13.690;2022-10-16T07:08:09;76638.31;;;-144.77;94.48
6449;BME280;3257;52.298;13.690;2022-10-16T07:10:35;76650.25;;;-144.77;94.87
6449;BME280;3257;52.298;13.690;2022-10-16T07:13:02;76638.31;;;-144.77;94.26
6449;BME280;3257;52.298;13.690;2022-10-16T07:15:29;76634.34;;;-144.77;94.65
6449;BME280;3257;52.298;13.690;2022-10-16T07:17:55;76656.22;;;-144.77;94.02
6449;BME280;3257;52.298;13.690;2022-10-16T07:20:21;76670.13;;;-144.77;94.72
6449;BME280;3257;52.298;13.690;2022-10-16T07:22:48;76682.03;;;-144.77;95.36
6449;BME280;3257;52.298;13.690;2022-10-16T07:25:14;76678.06;;;-144.77;96.09
6449;BME280;3257;52.298;13.690;2022-10-16T07:27:41;76666.16;;;-144.77;96.67
6449;BME280;3257;52.298;13.690;2022-10-16T07:30:08;76640.31;;;-144.77;96.72
6449;BME280;3257;52.298;13.690;2022-10-16T07:32:34;76620.44;;;-144.77;95.97
6449;BME280;3257;52.298;13.690;2022-10-16T07:35:01;76598.56;;;-144.77;95.30
6449;BME280;3257;52.298;13.690;2022-10-16T07:37:27;76596.59;;;-144.77;95.26
6449;BME280;3257;52.298;13.690;2022-10-16T07:39:54;76608.50;;;-144.77;95.07
6449;BME280;3257;52.298;13.690;2022-10-16T07:42:21;76606.53;;;-144.77;95.17
6449;BME280;3257;52.298;13.690;2022-10-16T07:44:48;76594.59;;;-144.77;95.49
6449;BME280;3257;52.298;13.690;2022-10-16T07:47:14;76564.78;;;-144.77;95.73
6449;BME280;3257;52.298;13.690;2022-10-16T07:49:40;76536.97;;;-144.77;94.79
6449;BME280;3257;52.298;13.690;2022-10-16T07:52:07;76499.22;;;-144.77;93.54
6449;BME280;3257;52.298;13.690;2022-10-16T07:54:34;76447.56;;;-144.77;92.19
6449;BME280;3257;52.298;13.690;2022-10-16T07:57:00;76423.72;;;-144.77;91.29
6449;BME280;3257;52.298;13.690;2022-10-16T07:59:27;76389.94;;;-144.77;89.74
6449;BME280;3257;52.298;13.690;2022-10-16T08:01:53;76372.03;;;-144.77;87.45
6449;BME280;3257;52.298;13.690;2022-10-16T08:04:20;76391.91;;;-144.77;86.27
6449;BME280;3257;52.298;13.690;2022-10-16T08:06:46;76389.94;;;-144.77;86.70
6449;BME280;3257;52.298;13.690;2022-10-16T08:09:13;76381.97;;;-144.77;86.54
6449;BME280;3257;52.298;13.690;2022-10-16T08:11:40;76395.91;;;-144.77;86.00
6449;BME280;3257;52.298;13.690;2022-10-16T08:14:07;76393.91;;;-144.77;86.52
6449;BME280;3257;52.298;13.690;2022-10-16T08:16:33;76405.81;;;-144.77;86.69
6449;BME280;3257;52.298;13.690;2022-10-16T08:19:00;76399.88;;;-144.77;86.17
6449;BME280;3257;52.298;13.690;2022-10-16T08:21:26;76399.88;;;-144.77;86.73
6449;BME280;3257;52.298;13.690;2022-10-16T08:23:53;76380.00;;;-144.77;86.60
6449;BME280;3257;52.298;13.690;2022-10-16T08:26:24;76362.09;;;-144.77;85.74
6449;BME280;3257;52.298;13.690;2022-10-16T08:28:51;76360.13;;;-144.77;85.73
6449;BME280;3257;52.298;13.690;2022-10-16T08:31:18;76360.13;;;-144.77;84.97
6449;BME280;3257;52.298;13.690;2022-10-16T08:33:45;76350.19;;;-144.77;85.22
6449;BME280;3257;52.298;13.690;2022-10-16T08:36:14;76344.22;;;-144.77;84.59
6449;BME280;3257;52.298;13.690;2022-10-16T08:38:40;76346.22;;;-144.77;83.94
6449;BME280;3257;52.298;13.690;2022-10-16T08:41:17;76326.34;;;-144.77;83.61
6449;BME280;3257;52.298;13.690;2022-10-16T08:44:14;76324.34;;;-144.77;83.57
6449;BME280;3257;52.298;13.690;2022-10-16T08:47:18;76308.47;;;-144.77;83.25
6449;BME280;3257;52.298;13.690;2022-10-16T08:49:55;76304.50;;;-144.77;83.63
6449;BME280;3257;52.298;13.690;2022-10-16T08:52:25;76302.50;;;-144.77;83.02
6449;BME280;3257;52.298;13.690;2022-10-16T08:54:56;76284.63;;;-144.77;82.72
6449;BME280;3257;52.298;13.690;2022-10-16T08:57:25;76292.56;;;-144.77;81.87
6449;BME280;3257;52.298;13.690;2022-10-16T08:59:53;76260.78;;;-144.77;82.58
6449;BME280;3257;52.298;13.690;2022-10-16T09:07:53;76266.72;;;-144.77;79.66
6449;BME280;3257;52.298;13.690;2022-10-16T09:15:49;76294.56;;;-144.77;80.23
6449;BME280;3257;52.298;13.690;2022-10-16T09:23:30;76330.31;;;-144.77;81.95
6449;BME280;3257;52.298;13.690;2022-10-16T09:25:58;76340.25;;;-144.77;80.17
6449;BME280;3257;52.298;13.690;2022-10-16T09:28:25;76348.19;;;-144.77;80.57
6449;BME280;3257;52.298;13.690;2022-10-16T09:30:51;76330.31;;;-144.77;80.16
6449;BME280;3257;52.298;13.690;2022-10-16T09:33:21;76316.41;;;-144.77;81.52
6449;BME280;3257;52.298;13.690;2022-10-16T09:35:51;76320.38;;;-144.77;80.69
6449;BME280;3257;52.298;13.690;2022-10-16T09:38:31;76320.38;;;-144.77;79.83
6449;BME280;3257;52.298;13.690;2022-10-16T09:41:10;76312.44;;;-144.77;78.79
6449;BME280;3257;52.298;13.690;2022-10-16T09:49:00;76278.66;;;-144.77;76.97
6449;BME280;3257;52.298;13.690;2022-10-16T09:51:33;76306.47;;;-144.77;77.89
6449;BME280;3257;52.298;13.690;2022-10-16T09:54:21;76316.41;;;-144.77;76.14
6449;BME280;3257;52.298;13.690;2022-10-16T09:56:48;76324.34;;;-144.77;75.76
6449;BME280;3257;52.298;13.690;2022-10-16T09:59:19;76318.41;;;-144.77;76.77
6449;BME280;3257;52.298;13.690;2022-10-16T10:01:55;76326.34;;;-144.77;76.95
6449;BME280;3257;52.298;13.690;2022-10-16T10:04:23;76332.31;;;-144.77;76.59
6449;BME280;3257;52.298;13.690;2022-10-16T10:06:53;76324.34;;;-144.77;76.69
6449;BME280;3257;52.298;13.690;2022-10-16T10:09:39;76332.31;;;-144.77;76.12
6449;BME280;3257;52.298;13.690;2022-10-16T10:12:23;76336.28;;;-144.77;76.69
6449;BME280;3257;52.298;13.690;2022-10-16T10:14:56;76326.34;;;-144.77;77.47
6449;BME280;3257;52.298;13.690;2022-10-16T10:17:28;76308.47;;;-144.77;76.78
6449;BME280;3257;52.298;13.690;2022-10-16T10:20:35;76316.41;;;-144.77;77.01
6449;BME280;3257;52.298;13.690;2022-10-16T10:23:24;76292.56;;;-144.77;74.44
6449;BME280;3257;52.298;13.690;2022-10-16T10:36:44;76250.84;;;-144.77;73.56
6449;BME280;3257;52.298;13.690;2022-10-16T10:39:24;76236.94;;;-144.77;72.67
6449;BME280;3257;52.298;13.690;2022-10-16T10:42:28;76227.00;;;-144.77;70.02
6449;BME280;3257;52.298;13.690;2022-10-16T10:45:16;76232.94;;;-144.77;70.18
6449;BME280;3257;52.298;13.690;2022-10-16T10:50:57;76221.03;;;-144.77;70.00
6449;BME280;3257;52.298;13.690;2022-10-16T10:56:24;76213.09;;;-144.77;71.05
6449;BME280;3257;52.298;13.690;2022-10-16T11:07:28;76219.03;;;-144.77;69.65
6449;BME280;3257;52.298;13.690;2022-10-16T11:10:11;76219.03;;;-144.77;70.84
6449;BME280;3257;52.298;13.690;2022-10-16T11:12:44;76201.16;;;-144.77;69.52
6449;BME280;3257;52.298;13.690;2022-10-16T11:15:29;76157.44;;;-144.77;70.49
6449;BME280;3257;52.298;13.690;2022-10-16T11:18:13;76155.47;;;-144.77;70.09
6449;BME280;3257;52.298;13.690;2022-10-16T11:20:56;76129.63;;;-144.77;68.39
6449;BME280;3257;52.298;13.690;2022-10-16T11:26:02;76113.75;;;-144.77;66.60
6449;BME280;3257;52.298;13.690;2022-10-16T11:28:36;76125.66;;;-144.77;65.71
6449;BME280;3257;52.298;13.690;2022-10-16T11:31:15;76133.59;;;-144.77;65.16
6449;BME280;3257;52.298;13.690;2022-10-16T11:33:47;76131.63;;;-144.77;66.49
6449;BME280;3257;52.298;13.690;2022-10-16T11:36:22;76137.59;;;-144.77;62.97
6449;BME280;3257;52.298;13.690;2022-10-16T11:39:00;76135.59;;;-144.77;63.94
6449;BME280;3257;52.298;13.690;2022-10-16T11:41:49;76131.63;;;-144.77;65.52
6449;BME280;3257;52.298;13.690;2022-10-16T11:50:30;76091.88;;;-144.77;60.60
6449;BME280;3257;52.298;13.690;2022-10-16T11:53:15;76097.84;;;-144.77;60.94
6449;BME280;3257;52.298;13.690;2022-10-16T11:55:45;76109.75;;;-144.77;60.14
6449;BME280;3257;52.298;13.690;2022-10-16T12:00:58;76149.50;;;-144.77;62.18
6449;BME280;3257;52.298;13.690;2022-10-16T12:03:41;76155.47;;;-144.77;63.77
6449;BME280;3257;52.298;13.690;2022-10-16T12:06:37;76157.44;;;-144.77;63.29
6449;BME280;3257;52.298;13.690;2022-10-16T12:09:14;76165.41;;;-144.77;64.52
6449;BME280;3257;52.298;13.690;2022-10-16T12:11:41;76165.41;;;-144.77;61.96
6449;BME280;3257;52.298;13.690;2022-10-16T12:19:18;76115.72;;;-144.77;60.79
6449;BME280;3257;52.298;13.690;2022-10-16T12:21:45;76113.75;;;-144.77;60.37
6449;BME280;3257;52.298;13.690;2022-10-16T12:24:36;76085.91;;;-144.77;59.34
6449;BME280;3257;52.298;13.690;2022-10-16T12:27:06;76087.91;;;-144.77;55.76
6449;BME280;3257;52.298;13.690;2022-10-16T12:29:46;76087.91;;;-144.77;53.87
6449;BME280;3257;52.298;13.690;2022-10-16T12:32:33;76115.72;;;-144.77;54.30
6449;BME280;3257;52.298;13.690;2022-10-16T12:35:19;76129.63;;;-144.77;54.97
6449;BME280;3257;52.298;13.690;2022-10-16T12:37:47;76137.59;;;-144.77;55.39
6449;BME280;3257;52.298;13.690;2022-10-16T12:40:22;76141.56;;;-144.77;56.50
6449;BME280;3257;52.298;13.690;2022-10-16T12:42:50;76169.38;;;-144.77;56.43
6449;BME280;3257;52.298;13.690;2022-10-16T12:45:28;76167.38;;;-144.77;56.90
6449;BME280;3257;52.298;13.690;2022-10-16T12:47:55;76169.38;;;-144.77;57.15
6449;BME280;3257;52.298;13.690;2022-10-16T12:53:01;76179.31;;;-144.77;55.06
6449;BME280;3257;52.298;13.690;2022-10-16T12:55:35;76185.25;;;-144.77;56.56
6449;BME280;3257;52.298;13.690;2022-10-16T13:04:10;76181.28;;;-144.77;56.35
6449;BME280;3257;52.298;13.690;2022-10-16T13:06:51;76181.28;;;-144.77;56.48
6449;BME280;3257;52.298;13.690;2022-10-16T13:09:47;76173.34;;;-144.77;55.74
6449;BME280;3257;52.298;13.690;2022-10-16T13:12:33;76183.28;;;-144.77;56.23
6449;BME280;3257;52.298;13.690;2022-10-16T13:18:18;76203.16;;;-144.77;57.37
6449;BME280;3257;52.298;13.690;2022-10-16T13:26:03;76189.25;;;-144.77;56.57
6449;BME280;3257;52.298;13.690;2022-10-16T13:28:34;76189.25;;;-144.77;58.27
6449;BME280;3257;52.298;13.690;2022-10-16T13:31:02;76185.25;;;-144.77;56.49
6449;BME280;3257;52.298;13.690;2022-10-16T13:33:34;76209.09;;;-144.77;55.20
6449;BME280;3257;52.298;13.690;2022-10-16T13:36:03;76185.25;;;-144.77;56.86
6449;BME280;3257;52.298;13.690;2022-10-16T13:38:32;76187.25;;;-144.77;55.96
6449;BME280;3257;52.298;13.690;2022-10-16T13:43:33;76173.34;;;-144.77;54.48
6449;BME280;3257;52.298;13.690;2022-10-16T13:46:06;76155.47;;;-144.77;58.03
6449;BME280;3257;52.298;13.690;2022-10-16T13:48:34;76145.53;;;-144.77;55.17
6449;BME280;3257;52.298;13.690;2022-10-16T13:51:16;76167.38;;;-144.77;55.26
6449;BME280;3257;52.298;13.690;2022-10-16T13:53:44;76183.28;;;-144.77;56.59
6449;BME280;3257;52.298;13.690;2022-10-16T13:56:14;76205.13;;;-144.77;58.04
6449;BME280;3257;52.298;13.690;2022-10-16T13:58:41;76211.09;;;-144.77;56.23
6449;BME280;3257;52.298;13.690;2022-10-16T14:01:23;76223.03;;;-144.77;59.83
6449;BME280;3257;52.298;13.690;2022-10-16T14:04:15;76215.06;;;-144.77;58.96
6449;BME280;3257;52.298;13.690;2022-10-16T14:06:45;76221.03;;;-144.77;55.82
6449;BME280;3257;52.298;13.690;2022-10-16T14:09:21;76223.03;;;-144.77;58.52
6449;BME280;3257;52.298;13.690;2022-10-16T14:11:51;76246.88;;;-144.77;58.49
6449;BME280;3257;52.298;13.690;2022-10-16T14:14:19;76254.81;;;-144.77;60.53
6449;BME280;3257;52.298;13.690;2022-10-16T14:16:46;76248.84;;;-144.77;57.07
6449;BME280;3257;52.298;13.690;2022-10-16T14:19:26;76250.84;;;-144.77;56.55
6449;BME280;3257;52.298;13.690;2022-10-16T14:21:53;76248.84;;;-144.77;56.99
6449;BME280;3257;52.298;13.690;2022-10-16T14:26:55;76248.84;;;-144.77;57.48
6449;BME280;3257;52.298;13.690;2022-10-16T14:29:24;76250.84;;;-144.77;56.35
6449;BME280;3257;52.298;13.690;2022-10-16T14:31:59;76252.81;;;-144.77;56.36
6449;BME280;3257;52.298;13.690;2022-10-16T14:34:37;76252.81;;;-144.77;56.49
6449;BME280;3257;52.298;13.690;2022-10-16T14:37:27;76270.72;;;-144.77;58.19
6449;BME280;3257;52.298;13.690;2022-10-16T14:39:55;76288.59;;;-144.77;58.45
6449;BME280;3257;52.298;13.690;2022-10-16T14:42:24;76280.66;;;-144.77;59.47
6449;BME280;3257;52.298;13.690;2022-10-16T14:44:53;76294.56;;;-144.77;59.12
6449;BME280;3257;52.298;13.690;2022-10-16T14:47:23;76304.50;;;-144.77;58.29
6449;BME280;3257;52.298;13.690;2022-10-16T14:49:54;76320.38;;;-144.77;59.04
6449;BME280;3257;52.298;13.690;2022-10-16T14:52:22;76316.41;;;-144.77;58.68
6449;BME280;3257;52.298;13.690;2022-10-16T14:54:49;76324.34;;;-144.77;59.07
6449;BME280;3257;52.298;13.690;2022-10-16T14:57:21;76336.28;;;-144.77;59.65